createdAt,value
2016-09-02T00:00:30.140Z,0
2016-09-02T00:01:29.573Z,0
2016-09-02T00:02:30.435Z,0
2016-09-02T00:03:29.554Z,0
2016-09-02T00:04:29.570Z,0
2016-09-02T00:05:29.561Z,0
2016-09-02T00:06:29.557Z,0
2016-09-02T00:07:29.555Z,0
2016-09-02T00:08:29.562Z,0
2016-09-02T00:09:29.544Z,0
2016-09-02T00:10:29.541Z,0
2016-09-02T00:11:29.531Z,0
2016-09-02T00:12:29.569Z,0
2016-09-02T00:13:29.551Z,0
2016-09-02T00:14:29.529Z,0
2016-09-02T00:15:29.540Z,0
2016-09-02T00:16:29.522Z,0
2016-09-02T00:17:29.527Z,0
2016-09-02T00:18:29.529Z,0
2016-09-02T00:19:29.539Z,0
2016-09-02T00:20:29.515Z,0
2016-09-02T00:21:29.515Z,0
2016-09-02T00:22:29.505Z,0
2016-09-02T00:23:30.199Z,0
2016-09-02T00:24:29.511Z,0
2016-09-02T00:25:29.501Z,0
2016-09-02T00:26:29.520Z,0
2016-09-02T00:27:29.495Z,0
2016-09-02T00:28:29.506Z,0
2016-09-02T00:29:29.497Z,0
2016-09-02T00:30:30.244Z,0
2016-09-02T00:31:29.496Z,0
2016-09-02T00:32:29.476Z,0
2016-09-02T00:33:29.504Z,0
2016-09-02T00:34:29.492Z,0
2016-09-02T00:35:29.482Z,0
2016-09-02T00:36:29.477Z,0
2016-09-02T00:37:29.491Z,0
2016-09-02T00:38:29.467Z,0
2016-09-02T00:39:29.497Z,0
2016-09-02T00:40:29.461Z,0
2016-09-02T00:41:30.169Z,0
2016-09-02T00:42:46.140Z,0
2016-09-02T00:44:30.765Z,0
2016-09-02T00:45:29.656Z,0
2016-09-02T00:46:30.485Z,0
2016-09-02T00:47:29.468Z,0
2016-09-02T00:48:30.217Z,0
2016-09-02T00:49:29.448Z,0
2016-09-02T00:50:29.909Z,0
2016-09-02T00:51:31.177Z,0
2016-09-02T00:52:32.777Z,0
2016-09-02T00:53:29.787Z,0
2016-09-02T00:54:31.431Z,0
2016-09-02T00:55:29.456Z,0
2016-09-02T00:56:29.950Z,0
2016-09-02T00:57:29.786Z,0
2016-09-02T00:58:29.465Z,0
2016-09-02T00:59:30.073Z,0
2016-09-02T01:00:30.156Z,0
2016-09-02T01:01:29.433Z,0
2016-09-02T01:02:30.721Z,0
2016-09-02T01:03:29.431Z,0
2016-09-02T01:04:30.121Z,0
2016-09-02T01:05:29.795Z,0
2016-09-02T01:06:29.425Z,0
2016-09-02T01:07:29.409Z,0
2016-09-02T01:08:29.421Z,0
2016-09-02T01:09:29.398Z,0
2016-09-02T01:10:29.416Z,0
2016-09-02T01:11:29.416Z,0
2016-09-02T01:12:29.415Z,0
2016-09-02T01:13:29.421Z,0
2016-09-02T01:14:29.416Z,0
2016-09-02T01:15:29.420Z,0
2016-09-02T01:16:29.396Z,0
2016-09-02T01:17:29.394Z,0
2016-09-02T01:18:29.408Z,0
2016-09-02T01:19:29.383Z,0
2016-09-02T01:20:29.401Z,0
2016-09-02T01:21:29.406Z,0
2016-09-02T01:22:29.383Z,0
2016-09-02T01:23:29.394Z,0
2016-09-02T01:24:29.373Z,0
2016-09-02T01:25:29.395Z,0
2016-09-02T01:26:29.386Z,0
2016-09-02T01:27:29.405Z,0
2016-09-02T01:28:29.375Z,0
2016-09-02T01:29:29.374Z,0
2016-09-02T01:30:29.458Z,0
2016-09-02T01:31:29.392Z,0
2016-09-02T01:32:29.368Z,0
2016-09-02T01:33:29.413Z,0
2016-09-02T01:34:29.359Z,0
2016-09-02T01:35:30.063Z,0
2016-09-02T01:36:29.374Z,0
2016-09-02T01:37:29.358Z,0
2016-09-02T01:38:29.367Z,0
2016-09-02T01:39:29.377Z,0
2016-09-02T01:40:29.348Z,0
2016-09-02T01:41:29.372Z,0
2016-09-02T01:42:29.359Z,0
2016-09-02T01:43:29.439Z,0
2016-09-02T01:44:29.337Z,0
2016-09-02T01:45:29.364Z,0
2016-09-02T01:46:29.338Z,0
2016-09-02T01:47:29.365Z,0
2016-09-02T01:48:29.345Z,0
2016-09-02T01:49:29.325Z,0
2016-09-02T01:50:29.354Z,0
2016-09-02T01:51:29.338Z,0
2016-09-02T01:52:29.326Z,0
2016-09-02T01:53:29.333Z,0
2016-09-02T01:54:29.324Z,0
2016-09-02T01:55:29.335Z,0
2016-09-02T01:56:29.344Z,0
2016-09-02T01:57:29.324Z,0
2016-09-02T01:58:29.325Z,0
2016-09-02T01:59:29.315Z,0
2016-09-02T02:00:32.151Z,0
2016-09-02T02:01:30.840Z,0
2016-09-02T02:02:29.840Z,0
2016-09-02T02:03:29.318Z,0
2016-09-02T02:04:30.107Z,0
2016-09-02T02:05:29.305Z,0
2016-09-02T02:06:29.311Z,0
2016-09-02T02:07:29.381Z,0
2016-09-02T02:08:30.147Z,0
2016-09-02T02:09:59.123Z,0
2016-09-02T02:10:46.004Z,0
2016-09-02T02:11:31.253Z,0
2016-09-02T02:12:30.397Z,0
2016-09-02T02:13:44.367Z,0
2016-09-02T02:14:29.603Z,0
2016-09-02T02:15:29.395Z,0
2016-09-02T02:16:29.990Z,0
2016-09-02T02:17:44.192Z,0
2016-09-02T02:18:30.226Z,0
2016-09-02T02:19:30.161Z,0
2016-09-02T02:20:29.732Z,0
2016-09-02T02:21:29.289Z,0
2016-09-02T02:22:29.417Z,0
2016-09-02T02:23:29.436Z,0
2016-09-02T02:24:29.261Z,0
2016-09-02T02:25:29.441Z,0
2016-09-02T02:26:29.253Z,0
2016-09-02T02:27:29.244Z,0
2016-09-02T02:28:29.245Z,0
2016-09-02T02:29:29.250Z,0
2016-09-02T02:30:29.236Z,0
2016-09-02T02:31:29.263Z,0
2016-09-02T02:32:29.243Z,0
2016-09-02T02:33:29.235Z,0
2016-09-02T02:34:29.248Z,0
2016-09-02T02:35:30.557Z,0
2016-09-02T02:36:29.246Z,0
2016-09-02T02:37:29.224Z,0
2016-09-02T02:38:29.246Z,0
2016-09-02T02:39:29.223Z,0
2016-09-02T02:40:29.227Z,0
2016-09-02T02:41:29.211Z,0
2016-09-02T02:42:29.210Z,0
2016-09-02T02:43:29.293Z,0
2016-09-02T02:44:29.216Z,0
2016-09-02T02:45:29.231Z,0
2016-09-02T02:46:29.198Z,0
2016-09-02T02:47:29.211Z,0
2016-09-02T02:48:29.208Z,0
2016-09-02T02:49:29.197Z,0
2016-09-02T02:50:29.221Z,0
2016-09-02T02:51:29.201Z,0
2016-09-02T02:52:29.215Z,0
2016-09-02T02:53:29.914Z,0
2016-09-02T02:54:29.189Z,0
2016-09-02T02:55:29.178Z,0
2016-09-02T02:56:29.217Z,0
2016-09-02T02:57:29.177Z,0
2016-09-02T02:58:29.172Z,0
2016-09-02T02:59:29.178Z,0
2016-09-02T03:00:29.170Z,0
2016-09-02T03:01:29.195Z,0
2016-09-02T03:02:29.171Z,0
2016-09-02T03:03:29.179Z,0
2016-09-02T03:04:29.157Z,0
2016-09-02T03:05:29.169Z,0
2016-09-02T03:06:29.156Z,0
2016-09-02T03:07:29.141Z,0
2016-09-02T03:08:29.168Z,0
2016-09-02T03:09:29.157Z,0
2016-09-02T03:10:29.149Z,0
2016-09-02T03:11:29.145Z,0
2016-09-02T03:12:29.140Z,0
2016-09-02T03:13:29.143Z,0
2016-09-02T03:14:29.141Z,0
2016-09-02T03:15:29.122Z,0
2016-09-02T03:16:29.166Z,0
2016-09-02T03:17:29.116Z,0
2016-09-02T03:18:30.370Z,0
2016-09-02T03:19:31.215Z,0
2016-09-02T03:20:32.068Z,0
2016-09-02T03:21:31.269Z,0
2016-09-02T03:22:29.486Z,0
2016-09-02T03:23:30.370Z,0
2016-09-02T03:24:29.098Z,0
2016-09-02T03:25:29.430Z,0
2016-09-02T03:26:29.719Z,0
2016-09-02T03:27:44.466Z,0
2016-09-02T03:28:30.353Z,0
2016-09-02T03:29:46.512Z,0
2016-09-02T03:30:29.450Z,0
2016-09-02T03:31:30.849Z,0
2016-09-02T03:32:29.722Z,0
2016-09-02T03:33:29.381Z,0
2016-09-02T03:34:29.066Z,0
2016-09-02T03:35:29.702Z,0
2016-09-02T03:36:30.533Z,0
2016-09-02T03:38:29.435Z,4
2016-09-02T03:39:30.067Z,4
2016-09-02T03:40:29.048Z,0
2016-09-02T03:41:29.040Z,4
2016-09-02T03:42:29.067Z,4
2016-09-02T03:43:29.132Z,4
2016-09-02T03:44:29.054Z,4
2016-09-02T03:45:29.036Z,4
2016-09-02T03:46:29.026Z,4
2016-09-02T03:47:29.021Z,4
2016-09-02T03:48:29.046Z,8
2016-09-02T03:49:29.029Z,12
2016-09-02T03:50:29.041Z,12
2016-09-02T03:51:29.046Z,12
2016-09-02T03:52:29.008Z,16
2016-09-02T03:53:29.029Z,20
2016-09-02T03:54:28.996Z,24
2016-09-02T03:55:29.012Z,28
2016-09-02T03:56:29.008Z,32
2016-09-02T03:57:28.989Z,36
2016-09-02T03:58:28.981Z,44
2016-09-02T03:59:28.991Z,48
2016-09-02T04:00:29.011Z,56
2016-09-02T04:01:28.974Z,64
2016-09-02T04:02:28.998Z,76
2016-09-02T04:03:28.980Z,84
2016-09-02T04:04:28.970Z,100
2016-09-02T04:05:28.969Z,112
2016-09-02T04:06:28.956Z,128
2016-09-02T04:07:28.978Z,148
2016-09-02T04:08:28.951Z,168
2016-09-02T04:09:28.968Z,184
2016-09-02T04:10:28.966Z,204
2016-09-02T04:11:28.945Z,228
2016-09-02T04:12:28.935Z,256
2016-09-02T04:13:28.950Z,284
2016-09-02T04:14:28.936Z,312
2016-09-02T04:15:28.933Z,344
2016-09-02T04:16:28.936Z,376
2016-09-02T04:17:28.911Z,412
2016-09-02T04:18:28.935Z,448
2016-09-02T04:19:28.942Z,484
2016-09-02T04:20:28.910Z,524
2016-09-02T04:21:28.931Z,564
2016-09-02T04:22:28.896Z,616
2016-09-02T04:23:28.913Z,664
2016-09-02T04:24:28.894Z,716
2016-09-02T04:25:28.880Z,772
2016-09-02T04:26:28.887Z,832
2016-09-02T04:27:28.898Z,888
2016-09-02T04:28:28.876Z,952
2016-09-02T04:29:28.874Z,1016
2016-09-02T04:30:28.879Z,1088
2016-09-02T04:31:28.879Z,1160
2016-09-02T04:32:28.874Z,1236
2016-09-02T04:33:28.857Z,1324
2016-09-02T04:34:28.851Z,1408
2016-09-02T04:35:28.859Z,1488
2016-09-02T04:37:29.492Z,1664
2016-09-02T04:38:30.651Z,1756
2016-09-02T04:39:30.233Z,1848
2016-09-02T04:40:28.856Z,1960
2016-09-02T04:41:29.813Z,2068
2016-09-02T04:42:28.840Z,2224
2016-09-02T04:43:29.391Z,2408
2016-09-02T04:44:44.788Z,2576
2016-09-02T04:45:31.805Z,2676
2016-09-02T04:47:31.246Z,3160
2016-09-02T04:48:30.859Z,3336
2016-09-02T04:49:30.365Z,3500
2016-09-02T04:50:28.825Z,3664
2016-09-02T04:51:29.125Z,3880
2016-09-02T04:52:28.782Z,4104
2016-09-02T04:53:29.295Z,4316
2016-09-02T04:54:29.202Z,4404
2016-09-02T04:55:28.903Z,4524
2016-09-02T04:56:43.688Z,4908
2016-09-02T04:57:29.832Z,5224
2016-09-02T04:58:28.767Z,5268
2016-09-02T04:59:29.018Z,4912
2016-09-02T05:00:28.818Z,5452
2016-09-02T05:01:28.762Z,6112
2016-09-02T05:02:28.775Z,6312
2016-09-02T05:03:28.760Z,6464
2016-09-02T05:04:28.753Z,6248
2016-09-02T05:05:28.882Z,6948
2016-09-02T05:06:28.767Z,7556
2016-09-02T05:07:28.739Z,7816
2016-09-02T05:08:28.752Z,8188
2016-09-02T05:09:28.771Z,8388
2016-09-02T05:10:28.737Z,8536
2016-09-02T05:11:28.761Z,8840
2016-09-02T05:12:28.765Z,9368
2016-09-02T05:13:28.772Z,9732
2016-09-02T05:14:29.433Z,10172
2016-09-02T05:15:28.747Z,10076
2016-09-02T05:16:28.729Z,10084
2016-09-02T05:17:28.745Z,10016
2016-09-02T05:18:28.722Z,10360
2016-09-02T05:19:28.736Z,10968
2016-09-02T05:20:28.739Z,11428
2016-09-02T05:21:28.738Z,11764
2016-09-02T05:22:28.744Z,11856
2016-09-02T05:23:28.737Z,11804
2016-09-02T05:24:28.740Z,12104
2016-09-02T05:25:28.724Z,12596
2016-09-02T05:26:28.722Z,12648
2016-09-02T05:27:28.729Z,12788
2016-09-02T05:28:28.733Z,13028
2016-09-02T05:29:28.731Z,13692
2016-09-02T05:30:28.763Z,14624
2016-09-02T05:31:28.732Z,14688
2016-09-02T05:32:28.776Z,14432
2016-09-02T05:33:28.739Z,14368
2016-09-02T05:34:28.758Z,14240
2016-09-02T05:35:30.419Z,15008
2016-09-02T05:36:28.757Z,15776
2016-09-02T05:37:28.744Z,15936
2016-09-02T05:38:28.776Z,15424
2016-09-02T05:39:28.775Z,15552
2016-09-02T05:40:28.823Z,16832
2016-09-02T05:41:28.768Z,17344
2016-09-02T05:42:28.775Z,16928
2016-09-02T05:43:28.767Z,17056
2016-09-02T05:44:28.771Z,17568
2016-09-02T05:45:28.793Z,17760
2016-09-02T05:46:28.788Z,17472
2016-09-02T05:47:28.793Z,17184
2016-09-02T05:48:28.799Z,17600
2016-09-02T05:49:28.840Z,18752
2016-09-02T05:50:28.855Z,18560
2016-09-02T05:51:28.828Z,17472
2016-09-02T05:52:28.819Z,17888
2016-09-02T05:53:29.526Z,17728
2016-09-02T05:55:32.269Z,18656
2016-09-02T05:56:30.060Z,19328
2016-09-02T05:57:29.912Z,19456
2016-09-02T05:58:31.717Z,19168
2016-09-02T05:59:30.194Z,18880
2016-09-02T06:00:28.885Z,17760
2016-09-02T06:01:28.884Z,18272
2016-09-02T06:03:29.188Z,18016
2016-09-02T06:04:31.350Z,18944
2016-09-02T06:05:32.619Z,18560
2016-09-02T06:06:31.495Z,18528
2016-09-02T06:07:29.587Z,18944
2016-09-02T06:08:30.156Z,19296
2016-09-02T06:09:30.616Z,17792
2016-09-02T06:10:28.965Z,19008
2016-09-02T06:11:28.960Z,19808
2016-09-02T06:12:30.071Z,18912
2016-09-02T06:13:29.116Z,15872
2016-09-02T06:14:29.657Z,14400
2016-09-02T06:15:30.244Z,14144
2016-09-02T06:16:29.605Z,14368
2016-09-02T06:17:30.024Z,14624
2016-09-02T06:18:29.017Z,14048
2016-09-02T06:20:29.053Z,13800
2016-09-02T06:21:29.061Z,14560
2016-09-02T06:22:29.049Z,13996
2016-09-02T06:23:29.067Z,13676
2016-09-02T06:24:29.071Z,14432
2016-09-02T06:25:29.098Z,16640
2016-09-02T06:26:29.091Z,19424
2016-09-02T06:27:29.112Z,20544
2016-09-02T06:28:34.134Z,20352
2016-09-02T06:30:34.906Z,21600
2016-09-02T06:31:30.667Z,20992
2016-09-02T06:32:29.151Z,19488
2016-09-02T06:33:29.972Z,19104
2016-09-02T06:34:29.173Z,19520
2016-09-02T06:35:30.475Z,19296
2016-09-02T06:36:29.192Z,18752
2016-09-02T06:37:29.226Z,17664
2016-09-02T06:38:29.217Z,17760
2016-09-02T06:39:29.230Z,17824
2016-09-02T06:40:29.225Z,17344
2016-09-02T06:41:29.259Z,17152
2016-09-02T06:42:29.248Z,17152
2016-09-02T06:43:29.274Z,16928
2016-09-02T06:44:29.295Z,17152
2016-09-02T06:45:29.279Z,14004
2016-09-02T06:46:29.299Z,16160
2016-09-02T06:47:29.305Z,18048
2016-09-02T06:48:29.308Z,18016
2016-09-02T06:49:29.322Z,14876
2016-09-02T06:50:29.361Z,16768
2016-09-02T06:51:29.351Z,17536
2016-09-02T06:52:29.362Z,17664
2016-09-02T06:53:29.365Z,17472
2016-09-02T06:54:29.405Z,17824
2016-09-02T06:55:29.376Z,17504
2016-09-02T06:56:29.403Z,17696
2016-09-02T06:57:29.415Z,15392
2016-09-02T06:58:29.422Z,15808
2016-09-02T06:59:29.459Z,17024
2016-09-02T07:00:29.461Z,17728
2016-09-02T07:01:29.448Z,18496
2016-09-02T07:02:29.478Z,18304
2016-09-02T07:03:29.476Z,18336
2016-09-02T07:04:29.502Z,19040
2016-09-02T07:05:29.487Z,18176
2016-09-02T07:06:29.525Z,17664
2016-09-02T07:07:29.512Z,17216
2016-09-02T07:08:29.544Z,16640
2016-09-02T07:09:29.528Z,15472
2016-09-02T07:10:29.551Z,14676
2016-09-02T07:11:29.549Z,16448
2016-09-02T07:12:29.563Z,16224
2016-09-02T07:14:32.644Z,15776
2016-09-02T07:15:30.954Z,16704
2016-09-02T07:16:30.155Z,16320
2016-09-02T07:17:29.613Z,16320
2016-09-02T07:18:30.043Z,17120
2016-09-02T07:19:29.644Z,17952
2016-09-02T07:20:29.783Z,17248
2016-09-02T07:21:30.617Z,17760
2016-09-02T07:22:31.715Z,18368
2016-09-02T07:23:32.290Z,19712
2016-09-02T07:24:30.765Z,20032
2016-09-02T07:25:45.255Z,21408
2016-09-02T07:26:29.694Z,22144
2016-09-02T07:27:30.380Z,22784
2016-09-02T07:28:29.714Z,22368
2016-09-02T07:29:29.721Z,23008
2016-09-02T07:30:29.820Z,23456
2016-09-02T07:31:30.226Z,23424
2016-09-02T07:32:45.233Z,23328
2016-09-02T07:33:29.766Z,21216
2016-09-02T07:34:30.201Z,19808
2016-09-02T07:35:30.972Z,18080
2016-09-02T07:36:30.214Z,16032
2016-09-02T07:37:29.952Z,16288
2016-09-02T07:38:29.815Z,18016
2016-09-02T07:39:29.834Z,20448
2016-09-02T07:40:30.216Z,20288
2016-09-02T07:41:29.843Z,19776
2016-09-02T07:42:29.877Z,22112
2016-09-02T07:43:29.875Z,23072
2016-09-02T07:44:29.896Z,21504
2016-09-02T07:45:30.582Z,20480
2016-09-02T07:46:29.902Z,22784
2016-09-02T07:47:29.936Z,21344
2016-09-02T07:48:29.909Z,21152
2016-09-02T07:49:29.942Z,19808
2016-09-02T07:50:29.943Z,20576
2016-09-02T07:51:29.961Z,20480
2016-09-02T07:52:29.990Z,20832
2016-09-02T07:53:29.967Z,20960
2016-09-02T07:54:29.989Z,21344
2016-09-02T07:55:29.982Z,20512
2016-09-02T07:56:30.009Z,20736
2016-09-02T07:57:30.012Z,20192
2016-09-02T07:58:30.034Z,19040
2016-09-02T07:59:30.023Z,20960
2016-09-02T08:00:30.059Z,22624
2016-09-02T08:01:30.745Z,23360
2016-09-02T08:02:30.065Z,23392
2016-09-02T08:03:30.067Z,23008
2016-09-02T08:04:30.074Z,25280
2016-09-02T08:05:30.086Z,25984
2016-09-02T08:06:30.104Z,22944
2016-09-02T08:07:30.120Z,24832
2016-09-02T08:08:30.114Z,21568
2016-09-02T08:09:30.159Z,22272
2016-09-02T08:10:30.399Z,26176
2016-09-02T08:11:30.153Z,26848
2016-09-02T08:12:30.180Z,25280
2016-09-02T08:13:30.179Z,24736
2016-09-02T08:14:30.207Z,24960
2016-09-02T08:15:30.185Z,24832
2016-09-02T08:16:30.208Z,24192
2016-09-02T08:17:30.907Z,23168
2016-09-02T08:18:30.219Z,23104
2016-09-02T08:19:30.246Z,23104
2016-09-02T08:20:30.246Z,22560
2016-09-02T08:21:30.273Z,19968
2016-09-02T08:22:30.275Z,16512
2016-09-02T08:23:30.265Z,15100
2016-09-02T08:24:30.288Z,15104
2016-09-02T08:25:30.297Z,15128
2016-09-02T08:26:30.304Z,15072
2016-09-02T08:27:30.328Z,14976
2016-09-02T08:28:30.319Z,15240
2016-09-02T08:29:30.344Z,15244
2016-09-02T08:30:30.336Z,15348
2016-09-02T08:32:31.700Z,15048
2016-09-02T08:33:32.332Z,14832
2016-09-02T08:34:31.933Z,14780
2016-09-02T08:35:31.656Z,14576
2016-09-02T08:36:30.400Z,14260
2016-09-02T08:37:31.278Z,13780
2016-09-02T08:38:30.416Z,13336
2016-09-02T08:39:30.753Z,13024
2016-09-02T08:40:32.696Z,12664
2016-09-02T08:41:33.698Z,12112
2016-09-02T08:42:32.438Z,11772
2016-09-02T08:43:32.390Z,11136
2016-09-02T08:44:31.788Z,10440
2016-09-02T08:45:30.711Z,9952
2016-09-02T08:46:31.071Z,9356
2016-09-02T08:47:30.474Z,9380
2016-09-02T08:48:31.527Z,9448
2016-09-02T08:49:31.154Z,9404
2016-09-02T08:50:31.305Z,9376
2016-09-02T08:51:31.069Z,9032
2016-09-02T08:52:30.561Z,8824
2016-09-02T08:53:30.504Z,8648
2016-09-02T08:54:30.771Z,8756
2016-09-02T08:55:30.510Z,9004
2016-09-02T08:56:30.533Z,8884
2016-09-02T08:57:30.554Z,8576
2016-09-02T08:58:30.568Z,8268
2016-09-02T08:59:30.535Z,8088
2016-09-02T09:00:30.546Z,8168
2016-09-02T09:01:30.540Z,8544
2016-09-02T09:02:30.569Z,8432
2016-09-02T09:03:30.552Z,8340
2016-09-02T09:04:30.570Z,8236
2016-09-02T09:05:30.593Z,8124
2016-09-02T09:06:30.592Z,8084
2016-09-02T09:07:30.576Z,8020
2016-09-02T09:08:30.599Z,7996
2016-09-02T09:09:30.588Z,7928
2016-09-02T09:10:30.592Z,7872
2016-09-02T09:11:30.592Z,7804
2016-09-02T09:12:30.617Z,7776
2016-09-02T09:13:30.612Z,7744
2016-09-02T09:14:31.321Z,7704
2016-09-02T09:15:30.619Z,7668
2016-09-02T09:16:32.130Z,7592
2016-09-02T09:17:30.634Z,7572
2016-09-02T09:18:30.634Z,7468
2016-09-02T09:19:30.625Z,7552
2016-09-02T09:20:30.653Z,7548
2016-09-02T09:21:30.638Z,7528
2016-09-02T09:22:30.631Z,7544
2016-09-02T09:23:31.340Z,7536
2016-09-02T09:24:33.395Z,7484
2016-09-02T09:27:33.183Z,7412
2016-09-02T09:28:35.215Z,7408
2016-09-02T09:29:33.005Z,7400
2016-09-02T09:31:30.656Z,7468
2016-09-02T09:32:30.688Z,7504
2016-09-02T09:33:30.671Z,7524
2016-09-02T09:34:30.678Z,7540
2016-09-02T09:35:33.480Z,7588
2016-09-02T09:36:30.723Z,8040
2016-09-02T09:37:30.693Z,8536
2016-09-02T09:38:30.690Z,8576
2016-09-02T09:39:30.698Z,8388
2016-09-02T09:40:30.691Z,7992
2016-09-02T09:41:42.367Z,7104
2016-09-02T09:42:32.221Z,7936
2016-09-02T09:43:30.719Z,8136
2016-09-02T09:44:30.727Z,8172
2016-09-02T09:45:30.699Z,7216
2016-09-02T09:46:30.705Z,7224
2016-09-02T09:47:30.714Z,7084
2016-09-02T09:48:30.716Z,7580
2016-09-02T09:49:33.979Z,7992
2016-09-02T09:50:32.969Z,7972
2016-09-02T09:51:30.822Z,7860
2016-09-02T09:52:31.701Z,7736
2016-09-02T09:53:31.300Z,7776
2016-09-02T09:54:30.790Z,7668
2016-09-02T09:55:31.622Z,7604
2016-09-02T09:56:30.749Z,7556
2016-09-02T09:57:31.384Z,7532
2016-09-02T09:58:33.963Z,7532
2016-09-02T09:59:32.837Z,7556
2016-09-02T10:00:30.769Z,7304
2016-09-02T10:01:31.861Z,7812
2016-09-02T10:02:31.598Z,8000
2016-09-02T10:03:30.755Z,8000
2016-09-02T10:04:31.505Z,7720
2016-09-02T10:05:30.780Z,7696
2016-09-02T10:06:32.162Z,7956
2016-09-02T10:07:32.061Z,8056
2016-09-02T10:08:32.260Z,7876
2016-09-02T10:09:30.858Z,7616
2016-09-02T10:10:30.988Z,7444
2016-09-02T10:11:30.793Z,7428
2016-09-02T10:12:31.340Z,7368
2016-09-02T10:13:30.786Z,7416
2016-09-02T10:14:30.803Z,7424
2016-09-02T10:15:31.151Z,7460
2016-09-02T10:16:30.804Z,7372
2016-09-02T10:17:30.794Z,7416
2016-09-02T10:18:30.781Z,7512
2016-09-02T10:19:30.798Z,7504
2016-09-02T10:20:31.588Z,7576
2016-09-02T10:21:30.799Z,7716
2016-09-02T10:22:30.813Z,7896
2016-09-02T10:23:30.807Z,7952
2016-09-02T10:24:30.809Z,8308
2016-09-02T10:25:30.813Z,8860
2016-09-02T10:26:30.838Z,8648
2016-09-02T10:27:30.809Z,8612
2016-09-02T10:28:30.816Z,8516
2016-09-02T10:29:30.812Z,8268
2016-09-02T10:30:30.835Z,8180
2016-09-02T10:31:30.828Z,8168
2016-09-02T10:32:30.863Z,8088
2016-09-02T10:33:30.842Z,7940
2016-09-02T10:34:30.843Z,7908
2016-09-02T10:35:30.844Z,7828
2016-09-02T10:36:30.857Z,7772
2016-09-02T10:37:30.837Z,7876
2016-09-02T10:38:30.858Z,7960
2016-09-02T10:39:30.857Z,8036
2016-09-02T10:40:30.863Z,8164
2016-09-02T10:41:30.868Z,8324
2016-09-02T10:42:30.868Z,8416
2016-09-02T10:43:31.566Z,8456
2016-09-02T10:44:30.850Z,8236
2016-09-02T10:45:30.884Z,7684
2016-09-02T10:46:30.865Z,7664
2016-09-02T10:47:31.581Z,8152
2016-09-02T10:48:30.876Z,8412
2016-09-02T10:49:30.894Z,9360
2016-09-02T10:50:31.045Z,10128
2016-09-02T10:51:31.567Z,10124
2016-09-02T10:52:30.902Z,9932
2016-09-02T10:53:30.953Z,10672
2016-09-02T10:54:30.891Z,11208
2016-09-02T10:55:30.890Z,11328
2016-09-02T10:56:30.899Z,11696
2016-09-02T10:57:30.895Z,11416
2016-09-02T10:58:30.889Z,11456
2016-09-02T10:59:31.690Z,11628
2016-09-02T11:00:31.447Z,11992
2016-09-02T11:01:30.929Z,12780
2016-09-02T11:02:31.625Z,13292
2016-09-02T11:04:30.919Z,14496
2016-09-02T11:05:30.934Z,14364
2016-09-02T11:06:30.917Z,13620
2016-09-02T11:08:33.850Z,13216
2016-09-02T11:09:32.457Z,13068
2016-09-02T11:10:30.936Z,12792
2016-09-02T11:11:30.943Z,12668
2016-09-02T11:12:30.970Z,12344
2016-09-02T11:13:31.348Z,12864
2016-09-02T11:14:30.983Z,12432
2016-09-02T11:15:47.040Z,12216
2016-09-02T11:16:48.442Z,11776
2016-09-02T11:17:55.174Z,11632
2016-09-02T11:18:31.928Z,11512
2016-09-02T11:19:40.379Z,11364
2016-09-02T11:20:31.963Z,11388
2016-09-02T11:21:30.967Z,12536
2016-09-02T11:22:31.362Z,13528
2016-09-02T11:23:30.978Z,13268
2016-09-02T11:24:32.249Z,12768
2016-09-02T11:25:32.452Z,13004
2016-09-02T11:26:31.202Z,13512
2016-09-02T11:28:45.918Z,14496
2016-09-02T11:29:31.458Z,15420
2016-09-02T11:30:31.012Z,16096
2016-09-02T11:31:31.026Z,16672
2016-09-02T11:32:31.047Z,16992
2016-09-02T11:33:33.301Z,17216
2016-09-02T11:34:40.178Z,17888
2016-09-02T11:35:31.018Z,18080
2016-09-02T11:36:31.025Z,17824
2016-09-02T11:37:31.023Z,17632
2016-09-02T11:38:31.136Z,17536
2016-09-02T11:39:31.042Z,17600
2016-09-02T11:40:31.765Z,17856
2016-09-02T11:41:31.051Z,18048
2016-09-02T11:42:31.057Z,18240
2016-09-02T11:43:31.053Z,18432
2016-09-02T11:44:31.089Z,18720
2016-09-02T11:45:31.341Z,18976
2016-09-02T11:46:31.078Z,18816
2016-09-02T11:47:31.102Z,18528
2016-09-02T11:48:31.105Z,18240
2016-09-02T11:49:31.094Z,18144
2016-09-02T11:50:31.095Z,18176
2016-09-02T11:51:31.092Z,18304
2016-09-02T11:52:31.131Z,18528
2016-09-02T11:53:31.117Z,18656
2016-09-02T11:54:31.144Z,18944
2016-09-02T11:55:31.112Z,19008
2016-09-02T11:56:31.135Z,18880
2016-09-02T11:57:31.125Z,19072
2016-09-02T11:58:31.142Z,19072
2016-09-02T11:59:31.148Z,19136
2016-09-02T12:00:31.171Z,19232
2016-09-02T12:01:31.160Z,19712
2016-09-02T12:02:31.158Z,20064
2016-09-02T12:03:31.156Z,20224
2016-09-02T12:04:31.157Z,20288
2016-09-02T12:05:31.179Z,20320
2016-09-02T12:06:31.184Z,20352
2016-09-02T12:07:31.199Z,20160
2016-09-02T12:08:31.182Z,19840
2016-09-02T12:09:31.201Z,20064
2016-09-02T12:11:31.203Z,20352
2016-09-02T12:12:57.865Z,20352
2016-09-02T12:13:31.215Z,20096
2016-09-02T12:14:31.226Z,19392
2016-09-02T12:15:31.233Z,18848
2016-09-02T12:16:31.246Z,18560
2016-09-02T12:17:31.258Z,18240
2016-09-02T12:18:31.253Z,18368
2016-09-02T12:19:31.264Z,18656
2016-09-02T12:20:31.247Z,18688
2016-09-02T12:22:31.280Z,17824
2016-09-02T12:23:40.353Z,17344
2016-09-02T12:24:31.300Z,17024
2016-09-02T12:25:32.807Z,16768
2016-09-02T12:26:31.311Z,16224
2016-09-02T12:27:33.179Z,15860
2016-09-02T12:28:31.626Z,15600
2016-09-02T12:29:38.328Z,15648
2016-09-02T12:30:45.853Z,16072
2016-09-02T12:36:52.918Z,18560
2016-09-02T12:37:32.874Z,18912
2016-09-02T12:38:36.323Z,19360
2016-09-02T12:39:32.347Z,19712
2016-09-02T12:41:32.257Z,20320
2016-09-02T12:42:48.375Z,20608
2016-09-02T12:43:31.998Z,20672
2016-09-02T12:44:31.389Z,20608
2016-09-02T12:45:32.726Z,20512
2016-09-02T12:46:31.397Z,20352
2016-09-02T12:47:32.109Z,20032
2016-09-02T12:48:31.419Z,19936
2016-09-02T12:49:31.422Z,19776
2016-09-02T12:50:31.441Z,19840
2016-09-02T12:51:32.946Z,19904
2016-09-02T12:52:31.453Z,19616
2016-09-02T12:53:47.576Z,19040
2016-09-02T12:54:31.481Z,18752
2016-09-02T12:55:31.456Z,18304
2016-09-02T12:56:31.484Z,17728
2016-09-02T12:57:31.475Z,17152
2016-09-02T12:58:31.468Z,16348
2016-09-02T12:59:31.483Z,15600
2016-09-02T13:00:31.527Z,14880
2016-09-02T13:01:31.496Z,14156
2016-09-02T13:02:44.961Z,13360
2016-09-02T13:03:41.414Z,12804
2016-09-02T13:04:31.527Z,12280
2016-09-02T13:05:31.535Z,11700
2016-09-02T13:06:31.522Z,11264
2016-09-02T13:07:31.540Z,11276
2016-09-02T13:08:38.016Z,10748
2016-09-02T13:10:31.952Z,10036
2016-09-02T13:11:31.543Z,9676
2016-09-02T13:12:31.583Z,9416
2016-09-02T13:13:31.565Z,9156
2016-09-02T13:14:32.296Z,8904
2016-09-02T13:15:31.569Z,8776
2016-09-02T13:16:31.580Z,9008
2016-09-02T13:17:31.583Z,10040
2016-09-02T13:18:31.603Z,10700
2016-09-02T13:19:31.603Z,10836
2016-09-02T13:20:31.596Z,10340
2016-09-02T13:21:31.616Z,9956
2016-09-02T13:22:31.610Z,9784
2016-09-02T13:23:31.643Z,10068
2016-09-02T13:24:31.634Z,10076
2016-09-02T13:25:31.643Z,10044
2016-09-02T13:26:31.637Z,9844
2016-09-02T13:27:31.678Z,9932
2016-09-02T13:28:31.686Z,10364
2016-09-02T13:29:31.669Z,10692
2016-09-02T13:30:31.657Z,11140
2016-09-02T13:31:31.686Z,11484
2016-09-02T13:32:32.370Z,11856
2016-09-02T13:33:31.686Z,12336
2016-09-02T13:34:31.675Z,12888
2016-09-02T13:35:32.694Z,13356
2016-09-02T13:36:31.681Z,13776
2016-09-02T13:37:31.685Z,14156
2016-09-02T13:38:31.700Z,14504
2016-09-02T13:39:31.726Z,14776
2016-09-02T13:40:31.701Z,15116
2016-09-02T13:41:31.726Z,15348
2016-09-02T13:42:31.719Z,15468
2016-09-02T13:44:32.036Z,15520
2016-09-02T13:45:34.358Z,15368
2016-09-02T13:46:33.105Z,14912
2016-09-02T13:47:32.443Z,14864
2016-09-02T13:48:32.436Z,14656
2016-09-02T13:49:31.749Z,14228
2016-09-02T13:50:32.014Z,13852
2016-09-02T13:51:32.818Z,13864
2016-09-02T13:54:34.304Z,12652
2016-09-02T13:55:33.098Z,12496
2016-09-02T13:56:31.863Z,12244
2016-09-02T13:57:32.409Z,12116
2016-09-02T13:58:31.797Z,11768